24.7°F
Current conditions from King Hill
Updated every 5 minutes
 
  Thursday December 18, 2014

Station Historical Data
Daily Summary for July 25, 2012 Units:  Both    English   Metric
« Previous Day
Next Day »
Daily Weekly Monthly Yearly Custom
  High: Low: Average:
Temperature: 75.2 °F /  24 °C 56.2 °F /  13.4 °C 64.2 °F /  17.9 °C
Dew Point: 59.7 °F /  15.4 °C 52.2 °F /  11.2 °C 55 °F /  12.8 °C
Humidity: 90% 47% 73%
Wind Speed: 6.0mph /  9.7km/h - 2.4mph /  3.9km/h
Wind Gust: 17.0mph /  27.4km/h - -
Wind- - West
Pressure: 29.88 in /  1011.7 hPa 29.72 in /  1006.3 hPa -
Precipitation: 0.00 in /  0 mm    
Historical Graphs
 
 
Tabular Data for July 25, 2012
Time Temperature Dew Point Pressure Wind Wind Speed Wind Gust Humidity Daily Rainfall
00:04 62.6 °F /  17 °C 54.9 °F /  12.7 °C 29.74in /  1007hPa Calm   7.0mph /  11.3km/h 76% 0.00in /  0mm
00:09 62.7 °F /  17.1 °C 55.0 °F /  12.8 °C 29.74in /  1007hPa Calm   11.0mph /  17.7km/h 76% 0.00in /  0mm
00:14 62.8 °F /  17.1 °C 55.1 °F /  12.8 °C 29.74in /  1007hPa NNW 1.0mph /  1.6km/h 11.0mph /  17.7km/h 76% 0.00in /  0mm
00:19 62.8 °F /  17.1 °C 55.1 °F /  12.8 °C 29.74in /  1007hPa Calm   6.0mph /  9.7km/h 76% 0.00in /  0mm
00:24 62.8 °F /  17.1 °C 54.8 °F /  12.7 °C 29.74in /  1007hPa Calm   5.0mph /  8km/h 75% 0.00in /  0mm
00:29 62.7 °F /  17.1 °C 54.7 °F /  12.6 °C 29.74in /  1007hPa Calm   4.0mph /  6.4km/h 75% 0.00in /  0mm
00:34 62.6 °F /  17 °C 54.9 °F /  12.7 °C 29.74in /  1007hPa Calm   5.0mph /  8km/h 76% 0.00in /  0mm
00:39 62.4 °F /  16.9 °C 54.7 °F /  12.6 °C 29.75in /  1007.3hPa Calm   5.0mph /  8km/h 76% 0.00in /  0mm
00:44 62.2 °F /  16.8 °C 54.5 °F /  12.5 °C 29.74in /  1007hPa NW 3.0mph /  4.8km/h 14.0mph /  22.5km/h 76% 0.00in /  0mm
00:49 62.0 °F /  16.7 °C 54.7 °F /  12.6 °C 29.74in /  1007hPa NW 1.0mph /  1.6km/h 14.0mph /  22.5km/h 77% 0.00in /  0mm
00:54 61.7 °F /  16.5 °C 54.8 °F /  12.7 °C 29.74in /  1007hPa Calm   7.0mph /  11.3km/h 78% 0.00in /  0mm
00:59 61.3 °F /  16.3 °C 54.4 °F /  12.4 °C 29.74in /  1007hPa Calm   5.0mph /  8km/h 78% 0.00in /  0mm
01:04 61.0 °F /  16.1 °C 54.4 °F /  12.4 °C 29.74in /  1007hPa Calm   4.0mph /  6.4km/h 79% 0.00in /  0mm
01:09 60.8 °F /  16 °C 54.3 °F /  12.4 °C 29.75in /  1007.3hPa Calm   4.0mph /  6.4km/h 79% 0.00in /  0mm
01:14 60.6 °F /  15.9 °C 54.4 °F /  12.4 °C 29.75in /  1007.3hPa Calm   3.0mph /  4.8km/h 80% 0.00in /  0mm
01:19 60.4 °F /  15.8 °C 54.2 °F /  12.3 °C 29.75in /  1007.3hPa Calm   8.0mph /  12.9km/h 80% 0.00in /  0mm
01:24 60.2 °F /  15.7 °C 54.4 °F /  12.4 °C 29.75in /  1007.3hPa Calm   8.0mph /  12.9km/h 81% 0.00in /  0mm
01:29 59.9 °F /  15.5 °C 54.4 °F /  12.4 °C 29.75in /  1007.3hPa Calm     82% 0.00in /  0mm
01:34 59.6 °F /  15.3 °C 54.1 °F /  12.3 °C 29.75in /  1007.3hPa Calm     82% 0.00in /  0mm
01:39 59.5 °F /  15.3 °C 54.0 °F /  12.2 °C 29.75in /  1007.3hPa Calm   3.0mph /  4.8km/h 82% 0.00in /  0mm
01:44 59.3 °F /  15.2 °C 54.1 °F /  12.3 °C 29.75in /  1007.3hPa Calm   3.0mph /  4.8km/h 83% 0.00in /  0mm
01:49 59.3 °F /  15.2 °C 54.1 °F /  12.3 °C 29.75in /  1007.3hPa Calm   3.0mph /  4.8km/h 83% 0.00in /  0mm
01:54 59.0 °F /  15 °C 54.2 °F /  12.3 °C 29.75in /  1007.3hPa Calm   3.0mph /  4.8km/h 84% 0.00in /  0mm
01:59 59.0 °F /  15 °C 54.2 °F /  12.3 °C 29.76in /  1007.7hPa Calm   3.0mph /  4.8km/h 84% 0.00in /  0mm
02:04 59.0 °F /  15 °C 54.5 °F /  12.5 °C 29.75in /  1007.3hPa Calm   6.0mph /  9.7km/h 85% 0.00in /  0mm
02:09 59.0 °F /  15 °C 54.5 °F /  12.5 °C 29.76in /  1007.7hPa Calm   6.0mph /  9.7km/h 85% 0.00in /  0mm
02:14 58.9 °F /  14.9 °C 54.4 °F /  12.4 °C 29.76in /  1007.7hPa Calm   2.0mph /  3.2km/h 85% 0.00in /  0mm
02:19 58.6 °F /  14.8 °C 54.1 °F /  12.3 °C 29.76in /  1007.7hPa Calm   1.0mph /  1.6km/h 85% 0.00in /  0mm
02:24 58.5 °F /  14.7 °C 54.0 °F /  12.2 °C 29.76in /  1007.7hPa Calm   3.0mph /  4.8km/h 85% 0.00in /  0mm
02:29 58.5 °F /  14.7 °C 54.3 °F /  12.4 °C 29.76in /  1007.7hPa Calm   6.0mph /  9.7km/h 86% 0.00in /  0mm
02:34 58.4 °F /  14.7 °C 54.2 °F /  12.3 °C 29.76in /  1007.7hPa Calm   6.0mph /  9.7km/h 86% 0.00in /  0mm
02:39 58.3 °F /  14.6 °C 54.1 °F /  12.3 °C 29.76in /  1007.7hPa Calm   1.0mph /  1.6km/h 86% 0.00in /  0mm
02:44 58.1 °F /  14.5 °C 53.9 °F /  12.2 °C 29.76in /  1007.7hPa Calm   1.0mph /  1.6km/h 86% 0.00in /  0mm
02:49 58.1 °F /  14.5 °C 53.9 °F /  12.2 °C 29.76in /  1007.7hPa Calm   2.0mph /  3.2km/h 86% 0.00in /  0mm
02:54 58.2 °F /  14.6 °C 54.4 °F /  12.4 °C 29.76in /  1007.7hPa Calm   3.0mph /  4.8km/h 87% 0.00in /  0mm
02:59 58.3 °F /  14.6 °C 54.5 °F /  12.5 °C 29.76in /  1007.7hPa Calm   3.0mph /  4.8km/h 87% 0.00in /  0mm
03:04 58.3 °F /  14.6 °C 54.5 °F /  12.5 °C 29.76in /  1007.7hPa Calm   2.0mph /  3.2km/h 87% 0.00in /  0mm
03:09 58.1 °F /  14.5 °C 54.3 °F /  12.4 °C 29.76in /  1007.7hPa Calm   2.0mph /  3.2km/h 87% 0.00in /  0mm
03:14 57.9 °F /  14.4 °C 54.1 °F /  12.3 °C 29.76in /  1007.7hPa Calm     87% 0.00in /  0mm
03:19 57.8 °F /  14.3 °C 54.0 °F /  12.2 °C 29.77in /  1008hPa Calm     87% 0.00in /  0mm
03:24 57.6 °F /  14.2 °C 53.8 °F /  12.1 °C 29.76in /  1007.7hPa Calm     87% 0.00in /  0mm
03:29 57.6 °F /  14.2 °C 54.1 °F /  12.3 °C 29.77in /  1008hPa Calm   6.0mph /  9.7km/h 88% 0.00in /  0mm
03:34 57.5 °F /  14.2 °C 54.0 °F /  12.2 °C 29.76in /  1007.7hPa Calm   6.0mph /  9.7km/h 88% 0.00in /  0mm
03:39 57.4 °F /  14.1 °C 53.9 °F /  12.2 °C 29.77in /  1008hPa Calm     88% 0.00in /  0mm
03:44 57.2 °F /  14 °C 53.7 °F /  12.1 °C 29.77in /  1008hPa Calm   2.0mph /  3.2km/h 88% 0.00in /  0mm
03:49 57.2 °F /  14 °C 53.7 °F /  12.1 °C 29.77in /  1008hPa Calm   2.0mph /  3.2km/h 88% 0.00in /  0mm
03:54 57.2 °F /  14 °C 53.7 °F /  12.1 °C 29.77in /  1008hPa Calm   2.0mph /  3.2km/h 88% 0.00in /  0mm
03:59 57.2 °F /  14 °C 53.7 °F /  12.1 °C 29.77in /  1008hPa Calm     88% 0.00in /  0mm
04:04 57.0 °F /  13.9 °C 53.5 °F /  11.9 °C 29.77in /  1008hPa Calm     88% 0.00in /  0mm
04:09 56.9 °F /  13.8 °C 53.4 °F /  11.9 °C 29.77in /  1008hPa Calm   3.0mph /  4.8km/h 88% 0.00in /  0mm
04:14 56.8 °F /  13.8 °C 53.3 °F /  11.8 °C 29.77in /  1008hPa Calm   3.0mph /  4.8km/h 88% 0.00in /  0mm
04:19 56.8 °F /  13.8 °C 53.3 °F /  11.8 °C 29.77in /  1008hPa Calm   1.0mph /  1.6km/h 88% 0.00in /  0mm
04:24 56.8 °F /  13.8 °C 53.3 °F /  11.8 °C 29.78in /  1008.4hPa Calm   1.0mph /  1.6km/h 88% 0.00in /  0mm
04:29 56.7 °F /  13.7 °C 53.2 °F /  11.8 °C 29.78in /  1008.4hPa Calm   1.0mph /  1.6km/h 88% 0.00in /  0mm
04:34 56.7 °F /  13.7 °C 53.2 °F /  11.8 °C 29.78in /  1008.4hPa Calm   2.0mph /  3.2km/h 88% 0.00in /  0mm
04:39 56.8 °F /  13.8 °C 53.3 °F /  11.8 °C 29.78in /  1008.4hPa Calm   4.0mph /  6.4km/h 88% 0.00in /  0mm
04:44 56.9 °F /  13.8 °C 53.1 °F /  11.7 °C 29.79in /  1008.7hPa Calm   4.0mph /  6.4km/h 87% 0.00in /  0mm
04:49 56.9 °F /  13.8 °C 53.1 °F /  11.7 °C 29.79in /  1008.7hPa Calm   1.0mph /  1.6km/h 87% 0.00in /  0mm
04:54 56.9 °F /  13.8 °C 53.1 °F /  11.7 °C 29.79in /  1008.7hPa Calm   1.0mph /  1.6km/h 87% 0.00in /  0mm
04:59 56.9 °F /  13.8 °C 53.1 °F /  11.7 °C 29.79in /  1008.7hPa Calm   1.0mph /  1.6km/h 87% 0.00in /  0mm
05:04 56.8 °F /  13.8 °C 53.0 °F /  11.7 °C 29.79in /  1008.7hPa Calm   1.0mph /  1.6km/h 87% 0.00in /  0mm
05:09 56.8 °F /  13.8 °C 53.0 °F /  11.7 °C 29.80in /  1009hPa Calm     87% 0.00in /  0mm
05:15 56.8 °F /  13.8 °C 53.0 °F /  11.7 °C 29.80in /  1009hPa Calm   4.0mph /  6.4km/h 87% 0.00in /  0mm
05:24 56.9 °F /  13.8 °C 53.1 °F /  11.7 °C 29.80in /  1009hPa Calm   3.0mph /  4.8km/h 87% 0.00in /  0mm
05:29 56.7 °F /  13.7 °C 52.9 °F /  11.6 °C 29.80in /  1009hPa Calm     87% 0.00in /  0mm
05:34 56.6 °F /  13.7 °C 53.1 °F /  11.7 °C 29.80in /  1009hPa Calm   3.0mph /  4.8km/h 88% 0.00in /  0mm
05:39 56.5 °F /  13.6 °C 53.0 °F /  11.7 °C 29.80in /  1009hPa Calm   3.0mph /  4.8km/h 88% 0.00in /  0mm
05:44 56.5 °F /  13.6 °C 53.0 °F /  11.7 °C 29.80in /  1009hPa Calm   1.0mph /  1.6km/h 88% 0.00in /  0mm
05:49 56.5 °F /  13.6 °C 53.3 °F /  11.8 °C 29.80in /  1009hPa Calm   4.0mph /  6.4km/h 89% 0.00in /  0mm
05:54 56.4 °F /  13.6 °C 53.2 °F /  11.8 °C 29.81in /  1009.4hPa Calm   4.0mph /  6.4km/h 89% 0.00in /  0mm
05:59 56.3 °F /  13.5 °C 52.8 °F /  11.6 °C 29.81in /  1009.4hPa Calm   1.0mph /  1.6km/h 88% 0.00in /  0mm
06:04 56.2 °F /  13.4 °C 53.0 °F /  11.7 °C 29.81in /  1009.4hPa Calm   1.0mph /  1.6km/h 89% 0.00in /  0mm
06:09 56.2 °F /  13.4 °C 53.0 °F /  11.7 °C 29.81in /  1009.4hPa Calm     89% 0.00in /  0mm
06:14 56.3 °F /  13.5 °C 53.1 °F /  11.7 °C 29.81in /  1009.4hPa Calm     89% 0.00in /  0mm
06:19 56.3 °F /  13.5 °C 53.1 °F /  11.7 °C 29.81in /  1009.4hPa Calm   1.0mph /  1.6km/h 89% 0.00in /  0mm
06:24 56.7 °F /  13.7 °C 53.8 °F /  12.1 °C 29.81in /  1009.4hPa Calm   1.0mph /  1.6km/h 90% 0.00in /  0mm
06:29 57.0 °F /  13.9 °C 54.1 °F /  12.3 °C 29.81in /  1009.4hPa Calm   2.0mph /  3.2km/h 90% 0.00in /  0mm
06:34 57.4 °F /  14.1 °C 54.5 °F /  12.5 °C 29.81in /  1009.4hPa Calm   2.0mph /  3.2km/h 90% 0.00in /  0mm
06:39 57.5 °F /  14.2 °C 54.6 °F /  12.6 °C 29.82in /  1009.7hPa Calm   4.0mph /  6.4km/h 90% 0.00in /  0mm
06:44 57.6 °F /  14.2 °C 54.7 °F /  12.6 °C 29.82in /  1009.7hPa NW 1.0mph /  1.6km/h 4.0mph /  6.4km/h 90% 0.00in /  0mm
06:49 57.7 °F /  14.3 °C 54.5 °F /  12.5 °C 29.82in /  1009.7hPa NW 1.0mph /  1.6km/h 4.0mph /  6.4km/h 89% 0.00in /  0mm
06:54 57.7 °F /  14.3 °C 54.5 °F /  12.5 °C 29.82in /  1009.7hPa Calm   4.0mph /  6.4km/h 89% 0.00in /  0mm
06:59 57.8 °F /  14.3 °C 54.6 °F /  12.6 °C 29.82in /  1009.7hPa Calm   3.0mph /  4.8km/h 89% 0.00in /  0mm
07:04 58.1 °F /  14.5 °C 54.9 °F /  12.7 °C 29.82in /  1009.7hPa Calm   7.0mph /  11.3km/h 89% 0.00in /  0mm
07:09 58.6 °F /  14.8 °C 55.7 °F /  13.2 °C 29.82in /  1009.7hPa Calm   7.0mph /  11.3km/h 90% 0.00in /  0mm
07:14 59.0 °F /  15 °C 56.1 °F /  13.4 °C 29.82in /  1009.7hPa Calm   2.0mph /  3.2km/h 90% 0.00in /  0mm
07:19 59.1 °F /  15.1 °C 55.6 °F /  13.1 °C 29.82in /  1009.7hPa Calm   4.0mph /  6.4km/h 88% 0.00in /  0mm
07:24 59.4 °F /  15.2 °C 55.5 °F /  13.1 °C 29.82in /  1009.7hPa Calm   4.0mph /  6.4km/h 87% 0.00in /  0mm
07:29 59.6 °F /  15.3 °C 55.7 °F /  13.2 °C 29.82in /  1009.7hPa Calm   8.0mph /  12.9km/h 87% 0.00in /  0mm
07:34 59.9 °F /  15.5 °C 56.0 °F /  13.3 °C 29.82in /  1009.7hPa Calm   8.0mph /  12.9km/h 87% 0.00in /  0mm
07:39 60.0 °F /  15.6 °C 55.8 °F /  13.2 °C 29.82in /  1009.7hPa Calm   5.0mph /  8km/h 86% 0.00in /  0mm
07:44 60.0 °F /  15.6 °C 55.5 °F /  13.1 °C 29.83in /  1010hPa Calm   7.0mph /  11.3km/h 85% 0.00in /  0mm
07:49 60.2 °F /  15.7 °C 56.0 °F /  13.3 °C 29.83in /  1010hPa Calm   7.0mph /  11.3km/h 86% 0.00in /  0mm
07:54 60.4 °F /  15.8 °C 55.9 °F /  13.3 °C 29.83in /  1010hPa Calm   7.0mph /  11.3km/h 85% 0.00in /  0mm
07:59 60.7 °F /  15.9 °C 56.2 °F /  13.4 °C 29.83in /  1010hPa Calm   7.0mph /  11.3km/h 85% 0.00in /  0mm
08:04 61.4 °F /  16.3 °C 56.9 °F /  13.8 °C 29.83in /  1010hPa NW 1.0mph /  1.6km/h 8.0mph /  12.9km/h 85% 0.00in /  0mm
08:09 62.4 °F /  16.9 °C 57.2 °F /  14 °C 29.83in /  1010hPa NW 3.0mph /  4.8km/h 11.0mph /  17.7km/h 83% 0.00in /  0mm
08:14 62.7 °F /  17.1 °C 56.1 °F /  13.4 °C 29.84in /  1010.4hPa NW 1.0mph /  1.6km/h 11.0mph /  17.7km/h 79% 0.00in /  0mm
08:20 62.4 °F /  16.9 °C 55.8 °F /  13.2 °C 29.83in /  1010hPa Calm   7.0mph /  11.3km/h 79% 0.00in /  0mm
08:29 63.2 °F /  17.3 °C 55.5 °F /  13.1 °C 29.83in /  1010hPa NNE 1.0mph /  1.6km/h 11.0mph /  17.7km/h 76% 0.00in /  0mm
08:34 63.1 °F /  17.3 °C 55.4 °F /  13 °C 29.83in /  1010hPa Calm   11.0mph /  17.7km/h 76% 0.00in /  0mm
08:39 62.8 °F /  17.1 °C 54.8 °F /  12.7 °C 29.84in /  1010.4hPa NNE 2.0mph /  3.2km/h 7.0mph /  11.3km/h 75% 0.00in /  0mm
08:44 63.1 °F /  17.3 °C 55.1 °F /  12.8 °C 29.83in /  1010hPa NE 3.0mph /  4.8km/h 10.0mph /  16.1km/h 75% 0.00in /  0mm
08:49 63.9 °F /  17.7 °C 55.8 °F /  13.2 °C 29.83in /  1010hPa Calm   10.0mph /  16.1km/h 75% 0.00in /  0mm
08:54 63.9 °F /  17.7 °C 55.5 °F /  13.1 °C 29.83in /  1010hPa Calm   8.0mph /  12.9km/h 74% 0.00in /  0mm
08:59 64.1 °F /  17.8 °C 56.0 °F /  13.3 °C 29.83in /  1010hPa Calm   7.0mph /  11.3km/h 75% 0.00in /  0mm
09:04 64.2 °F /  17.9 °C 55.4 °F /  13 °C 29.83in /  1010hPa Calm   4.0mph /  6.4km/h 73% 0.00in /  0mm
09:09 63.9 °F /  17.7 °C 55.1 °F /  12.8 °C 29.83in /  1010hPa NW 2.0mph /  3.2km/h 8.0mph /  12.9km/h 73% 0.00in /  0mm
09:14 63.1 °F /  17.3 °C 55.1 °F /  12.8 °C 29.83in /  1010hPa Calm   8.0mph /  12.9km/h 75% 0.00in /  0mm
09:19 63.4 °F /  17.4 °C 55.0 °F /  12.8 °C 29.83in /  1010hPa WNW 4.0mph /  6.4km/h 8.0mph /  12.9km/h 74% 0.00in /  0mm
09:24 64.1 °F /  17.8 °C 56.7 °F /  13.7 °C 29.84in /  1010.4hPa Calm   8.0mph /  12.9km/h 77% 0.00in /  0mm
09:29 65.3 °F /  18.5 °C 56.4 °F /  13.6 °C 29.84in /  1010.4hPa Calm   5.0mph /  8km/h 73% 0.00in /  0mm
09:35 66.1 °F /  18.9 °C 55.2 °F /  12.9 °C 29.83in /  1010hPa Calm   5.0mph /  8km/h 68% 0.00in /  0mm
09:40 66.6 °F /  19.2 °C 55.7 °F /  13.2 °C 29.83in /  1010hPa NNW 1.0mph /  1.6km/h 7.0mph /  11.3km/h 68% 0.00in /  0mm
09:49 67.5 °F /  19.7 °C 54.9 °F /  12.7 °C 29.83in /  1010hPa North 1.0mph /  1.6km/h 7.0mph /  11.3km/h 64% 0.00in /  0mm
09:55 67.9 °F /  19.9 °C 54.9 °F /  12.7 °C 29.84in /  1010.4hPa NNE 4.0mph /  6.4km/h 11.0mph /  17.7km/h 63% 0.00in /  0mm
10:04 67.3 °F /  19.6 °C 55.1 °F /  12.8 °C 29.83in /  1010hPa NNE 2.0mph /  3.2km/h 9.0mph /  14.5km/h 65% 0.00in /  0mm
10:09 68.1 °F /  20.1 °C 56.7 °F /  13.7 °C 29.83in /  1010hPa Calm   9.0mph /  14.5km/h 67% 0.00in /  0mm
10:14 68.8 °F /  20.4 °C 56.6 °F /  13.7 °C 29.83in /  1010hPa NE 3.0mph /  4.8km/h 10.0mph /  16.1km/h 65% 0.00in /  0mm
10:19 68.9 °F /  20.5 °C 57.1 °F /  13.9 °C 29.83in /  1010hPa Calm   10.0mph /  16.1km/h 66% 0.00in /  0mm
10:24 68.8 °F /  20.4 °C 57.4 °F /  14.1 °C 29.84in /  1010.4hPa Calm   8.0mph /  12.9km/h 67% 0.00in /  0mm
10:29 68.5 °F /  20.3 °C 56.3 °F /  13.5 °C 29.84in /  1010.4hPa NNW 2.0mph /  3.2km/h 7.0mph /  11.3km/h 65% 0.00in /  0mm
10:34 67.6 °F /  19.8 °C 55.8 °F /  13.2 °C 29.84in /  1010.4hPa WNW 4.0mph /  6.4km/h 14.0mph /  22.5km/h 66% 0.00in /  0mm
10:39 65.9 °F /  18.8 °C 54.6 °F /  12.6 °C 29.84in /  1010.4hPa NW 3.0mph /  4.8km/h 14.0mph /  22.5km/h 67% 0.00in /  0mm
10:44 64.8 °F /  18.2 °C 55.2 °F /  12.9 °C 29.84in /  1010.4hPa WNW 1.0mph /  1.6km/h 13.0mph /  20.9km/h 71% 0.00in /  0mm
10:49 64.7 °F /  18.2 °C 54.7 °F /  12.6 °C 29.84in /  1010.4hPa WNW 3.0mph /  4.8km/h 8.0mph /  12.9km/h 70% 0.00in /  0mm
10:54 64.8 °F /  18.2 °C 56.0 °F /  13.3 °C 29.84in /  1010.4hPa Calm   7.0mph /  11.3km/h 73% 0.00in /  0mm
10:59 65.5 °F /  18.6 °C 55.9 °F /  13.3 °C 29.85in /  1010.7hPa NW 1.0mph /  1.6km/h 5.0mph /  8km/h 71% 0.00in /  0mm
11:04 66.8 °F /  19.3 °C 57.5 °F /  14.2 °C 29.86in /  1011.1hPa Calm   8.0mph /  12.9km/h 72% 0.00in /  0mm
11:09 67.2 °F /  19.6 °C 56.3 °F /  13.5 °C 29.87in /  1011.4hPa NW 3.0mph /  4.8km/h 8.0mph /  12.9km/h 68% 0.00in /  0mm
11:14 66.9 °F /  19.4 °C 55.2 °F /  12.9 °C 29.87in /  1011.4hPa WNW 6.0mph /  9.7km/h 10.0mph /  16.1km/h 66% 0.00in /  0mm
11:19 67.2 °F /  19.6 °C 57.1 °F /  13.9 °C 29.88in /  1011.7hPa WNW 2.0mph /  3.2km/h 12.0mph /  19.3km/h 70% 0.00in /  0mm
11:24 66.6 °F /  19.2 °C 55.3 °F /  12.9 °C 29.87in /  1011.4hPa WNW 6.0mph /  9.7km/h 12.0mph /  19.3km/h 67% 0.00in /  0mm
11:29 66.8 °F /  19.3 °C 57.5 °F /  14.2 °C 29.86in /  1011.1hPa Calm   11.0mph /  17.7km/h 72% 0.00in /  0mm
11:34 68.0 °F /  20 °C 57.9 °F /  14.4 °C 29.86in /  1011.1hPa WNW 3.0mph /  4.8km/h 10.0mph /  16.1km/h 70% 0.00in /  0mm
11:39 67.5 °F /  19.7 °C 56.2 °F /  13.4 °C 29.85in /  1010.7hPa Calm   10.0mph /  16.1km/h 67% 0.00in /  0mm
11:44 68.1 °F /  20.1 °C 58.7 °F /  14.8 °C 29.85in /  1010.7hPa Calm   10.0mph /  16.1km/h 72% 0.00in /  0mm
11:49 68.9 °F /  20.5 °C 55.8 °F /  13.2 °C 29.85in /  1010.7hPa NW 4.0mph /  6.4km/h 8.0mph /  12.9km/h 63% 0.00in /  0mm
11:54 68.9 °F /  20.5 °C 57.9 °F /  14.4 °C 29.85in /  1010.7hPa NW 3.0mph /  4.8km/h 11.0mph /  17.7km/h 68% 0.00in /  0mm
11:59 69.1 °F /  20.6 °C 57.3 °F /  14.1 °C 29.85in /  1010.7hPa Calm   11.0mph /  17.7km/h 66% 0.00in /  0mm
12:04 68.8 °F /  20.4 °C 56.6 °F /  13.7 °C 29.85in /  1010.7hPa NW 6.0mph /  9.7km/h 10.0mph /  16.1km/h 65% 0.00in /  0mm
12:09 68.8 °F /  20.4 °C 59.0 °F /  15 °C 29.85in /  1010.7hPa NW 1.0mph /  1.6km/h 10.0mph /  16.1km/h 71% 0.00in /  0mm
12:14 69.3 °F /  20.7 °C 56.2 °F /  13.4 °C 29.85in /  1010.7hPa NW 1.0mph /  1.6km/h 9.0mph /  14.5km/h 63% 0.00in /  0mm
12:19 69.4 °F /  20.8 °C 55.8 °F /  13.2 °C 29.85in /  1010.7hPa WNW 3.0mph /  4.8km/h 9.0mph /  14.5km/h 62% 0.00in /  0mm
12:24 69.4 °F /  20.8 °C 57.1 °F /  13.9 °C 29.85in /  1010.7hPa NNE 2.0mph /  3.2km/h 9.0mph /  14.5km/h 65% 0.00in /  0mm
12:29 69.0 °F /  20.6 °C 56.3 °F /  13.5 °C 29.85in /  1010.7hPa WNW 2.0mph /  3.2km/h 8.0mph /  12.9km/h 64% 0.00in /  0mm
12:34 69.0 °F /  20.6 °C 58.4 °F /  14.7 °C 29.85in /  1010.7hPa NW 1.0mph /  1.6km/h 9.0mph /  14.5km/h 69% 0.00in /  0mm
12:39 69.3 °F /  20.7 °C 56.2 °F /  13.4 °C 29.84in /  1010.4hPa Calm   9.0mph /  14.5km/h 63% 0.00in /  0mm
12:44 69.6 °F /  20.9 °C 58.2 °F /  14.6 °C 29.85in /  1010.7hPa NW 2.0mph /  3.2km/h 8.0mph /  12.9km/h 67% 0.00in /  0mm
12:49 70.4 °F /  21.3 °C 57.2 °F /  14 °C 29.84in /  1010.4hPa NW 4.0mph /  6.4km/h 8.0mph /  12.9km/h 63% 0.00in /  0mm
12:54 70.6 °F /  21.4 °C 58.3 °F /  14.6 °C 29.84in /  1010.4hPa NNW 2.0mph /  3.2km/h 8.0mph /  12.9km/h 65% 0.00in /  0mm
12:59 70.6 °F /  21.4 °C 56.5 °F /  13.6 °C 29.85in /  1010.7hPa WNW 6.0mph /  9.7km/h 16.0mph /  25.7km/h 61% 0.00in /  0mm
13:04 70.9 °F /  21.6 °C 58.1 °F /  14.5 °C 29.84in /  1010.4hPa WNW 5.0mph /  8km/h 16.0mph /  25.7km/h 64% 0.00in /  0mm
13:09 71.2 °F /  21.8 °C 57.5 °F /  14.2 °C 29.85in /  1010.7hPa WNW 4.0mph /  6.4km/h 14.0mph /  22.5km/h 62% 0.00in /  0mm
13:14 71.7 °F /  22.1 °C 58.9 °F /  14.9 °C 29.85in /  1010.7hPa NNE 1.0mph /  1.6km/h 9.0mph /  14.5km/h 64% 0.00in /  0mm
13:19 72.2 °F /  22.3 °C 57.6 °F /  14.2 °C 29.85in /  1010.7hPa NW 4.0mph /  6.4km/h 9.0mph /  14.5km/h 60% 0.00in /  0mm
13:25 72.3 °F /  22.4 °C 57.2 °F /  14 °C 29.85in /  1010.7hPa WNW 1.0mph /  1.6km/h 7.0mph /  11.3km/h 59% 0.00in /  0mm
13:34 72.0 °F /  22.2 °C 58.7 °F /  14.8 °C 29.84in /  1010.4hPa NW 1.0mph /  1.6km/h 9.0mph /  14.5km/h 63% 0.00in /  0mm
13:39 72.1 °F /  22.3 °C 55.6 °F /  13.1 °C 29.84in /  1010.4hPa NW 4.0mph /  6.4km/h 17.0mph /  27.4km/h 56% 0.00in /  0mm
13:44 71.6 °F /  22 °C 57.0 °F /  13.9 °C 29.84in /  1010.4hPa NW 2.0mph /  3.2km/h 17.0mph /  27.4km/h 60% 0.00in /  0mm
13:49 72.1 °F /  22.3 °C 56.0 °F /  13.3 °C 29.84in /  1010.4hPa NW 2.0mph /  3.2km/h 15.0mph /  24.1km/h 57% 0.00in /  0mm
13:54 72.4 °F /  22.4 °C 56.8 °F /  13.8 °C 29.83in /  1010hPa WNW 2.0mph /  3.2km/h 8.0mph /  12.9km/h 58% 0.00in /  0mm
13:59 72.1 °F /  22.3 °C 56.0 °F /  13.3 °C 29.83in /  1010hPa Calm   9.0mph /  14.5km/h 57% 0.00in /  0mm
14:04 72.1 °F /  22.3 °C 56.5 °F /  13.6 °C 29.83in /  1010hPa WNW 6.0mph /  9.7km/h 11.0mph /  17.7km/h 58% 0.00in /  0mm
14:09 71.8 °F /  22.1 °C 52.7 °F /  11.5 °C 29.83in /  1010hPa NW 2.0mph /  3.2km/h 11.0mph /  17.7km/h 51% 0.00in /  0mm
14:14 72.1 °F /  22.3 °C 56.5 °F /  13.6 °C 29.83in /  1010hPa NW 1.0mph /  1.6km/h 9.0mph /  14.5km/h 58% 0.00in /  0mm
14:19 72.7 °F /  22.6 °C 54.6 °F /  12.6 °C 29.83in /  1010hPa NW 3.0mph /  4.8km/h 8.0mph /  12.9km/h 53% 0.00in /  0mm
14:24 72.3 °F /  22.4 °C 56.2 °F /  13.4 °C 29.82in /  1009.7hPa NW 3.0mph /  4.8km/h 12.0mph /  19.3km/h 57% 0.00in /  0mm
14:29 72.3 °F /  22.4 °C 55.2 °F /  12.9 °C 29.82in /  1009.7hPa WNW 3.0mph /  4.8km/h 12.0mph /  19.3km/h 55% 0.00in /  0mm
14:34 72.6 °F /  22.6 °C 57.0 °F /  13.9 °C 29.82in /  1009.7hPa WNW 1.0mph /  1.6km/h 7.0mph /  11.3km/h 58% 0.00in /  0mm
14:39 72.7 °F /  22.6 °C 53.5 °F /  11.9 °C 29.82in /  1009.7hPa WNW 4.0mph /  6.4km/h 8.0mph /  12.9km/h 51% 0.00in /  0mm
14:44 72.7 °F /  22.6 °C 57.6 °F /  14.2 °C 29.82in /  1009.7hPa NW 1.0mph /  1.6km/h 9.0mph /  14.5km/h 59% 0.00in /  0mm
14:49 72.7 °F /  22.6 °C 55.1 °F /  12.8 °C 29.82in /  1009.7hPa NW 2.0mph /  3.2km/h 9.0mph /  14.5km/h 54% 0.00in /  0mm
14:54 73.3 °F /  22.9 °C 56.2 °F /  13.4 °C 29.82in /  1009.7hPa NW 2.0mph /  3.2km/h 10.0mph /  16.1km/h 55% 0.00in /  0mm
14:59 73.4 °F /  23 °C 55.8 °F /  13.2 °C 29.82in /  1009.7hPa WNW 2.0mph /  3.2km/h 10.0mph /  16.1km/h 54% 0.00in /  0mm
15:04 73.9 °F /  23.3 °C 55.7 °F /  13.2 °C 29.82in /  1009.7hPa NW 1.0mph /  1.6km/h 7.0mph /  11.3km/h 53% 0.00in /  0mm
15:09 74.4 °F /  23.6 °C 56.7 °F /  13.7 °C 29.82in /  1009.7hPa NNE 1.0mph /  1.6km/h 6.0mph /  9.7km/h 54% 0.00in /  0mm
15:14 74.7 °F /  23.7 °C 58.5 °F /  14.7 °C 29.82in /  1009.7hPa NNW 1.0mph /  1.6km/h 8.0mph /  12.9km/h 57% 0.00in /  0mm
15:19 74.9 °F /  23.8 °C 57.7 °F /  14.3 °C 29.82in /  1009.7hPa WNW 1.0mph /  1.6km/h 9.0mph /  14.5km/h 55% 0.00in /  0mm
15:24 74.9 °F /  23.8 °C 57.2 °F /  14 °C 29.81in /  1009.4hPa NW 3.0mph /  4.8km/h 11.0mph /  17.7km/h 54% 0.00in /  0mm
15:29 74.5 °F /  23.6 °C 55.2 °F /  12.9 °C 29.81in /  1009.4hPa Calm   11.0mph /  17.7km/h 51% 0.00in /  0mm
15:34 74.4 °F /  23.6 °C 58.7 °F /  14.8 °C 29.81in /  1009.4hPa NE 2.0mph /  3.2km/h 7.0mph /  11.3km/h 58% 0.00in /  0mm
15:39 74.2 °F /  23.4 °C 56.0 °F /  13.3 °C 29.80in /  1009hPa NW 3.0mph /  4.8km/h 7.0mph /  11.3km/h 53% 0.00in /  0mm
15:44 73.9 °F /  23.3 °C 56.7 °F /  13.7 °C 29.81in /  1009.4hPa West 2.0mph /  3.2km/h 6.0mph /  9.7km/h 55% 0.00in /  0mm
15:49 74.2 °F /  23.4 °C 58.0 °F /  14.4 °C 29.81in /  1009.4hPa WNW 5.0mph /  8km/h 8.0mph /  12.9km/h 57% 0.00in /  0mm
15:54 74.2 °F /  23.4 °C 56.0 °F /  13.3 °C 29.81in /  1009.4hPa WNW 3.0mph /  4.8km/h 8.0mph /  12.9km/h 53% 0.00in /  0mm
15:59 74.4 °F /  23.6 °C 58.7 °F /  14.8 °C 29.80in /  1009hPa NW 1.0mph /  1.6km/h 7.0mph /  11.3km/h 58% 0.00in /  0mm
16:04 74.6 °F /  23.7 °C 56.4 °F /  13.6 °C 29.80in /  1009hPa WNW 1.0mph /  1.6km/h 5.0mph /  8km/h 53% 0.00in /  0mm
16:09 74.6 °F /  23.7 °C 55.3 °F /  12.9 °C 29.80in /  1009hPa NNE 1.0mph /  1.6km/h 6.0mph /  9.7km/h 51% 0.00in /  0mm
16:14 74.6 °F /  23.7 °C 56.4 °F /  13.6 °C 29.80in /  1009hPa NW 3.0mph /  4.8km/h 8.0mph /  12.9km/h 53% 0.00in /  0mm
16:19 74.7 °F /  23.7 °C 55.4 °F /  13 °C 29.80in /  1009hPa NW 1.0mph /  1.6km/h 8.0mph /  12.9km/h 51% 0.00in /  0mm
16:24 74.7 °F /  23.7 °C 57.0 °F /  13.9 °C 29.80in /  1009hPa Calm   5.0mph /  8km/h 54% 0.00in /  0mm
16:29 75.1 °F /  23.9 °C 55.2 °F /  12.9 °C 29.80in /  1009hPa WNW 3.0mph /  4.8km/h 7.0mph /  11.3km/h 50% 0.00in /  0mm
16:34 75.2 °F /  24 °C 55.9 °F /  13.3 °C 29.80in /  1009hPa NW 2.0mph /  3.2km/h 7.0mph /  11.3km/h 51% 0.00in /  0mm
16:39 75.1 °F /  23.9 °C 54.1 °F /  12.3 °C 29.80in /  1009hPa NNE 2.0mph /  3.2km/h 7.0mph /  11.3km/h 48% 0.00in /  0mm
16:44 74.8 °F /  23.8 °C 56.0 °F /  13.3 °C 29.79in /  1008.7hPa NW 2.0mph /  3.2km/h 7.0mph /  11.3km/h 52% 0.00in /  0mm
16:49 74.3 °F /  23.5 °C 55.6 °F /  13.1 °C 29.79in /  1008.7hPa Calm   7.0mph /  11.3km/h 52% 0.00in /  0mm
16:54 73.9 °F /  23.3 °C 54.7 °F /  12.6 °C 29.79in /  1008.7hPa Calm   4.0mph /  6.4km/h 51% 0.00in /  0mm
16:59 73.9 °F /  23.3 °C 56.2 °F /  13.4 °C 29.79in /  1008.7hPa Calm   5.0mph /  8km/h 54% 0.00in /  0mm
17:04 74.0 °F /  23.3 °C 53.7 °F /  12.1 °C 29.79in /  1008.7hPa North 2.0mph /  3.2km/h 6.0mph /  9.7km/h 49% 0.00in /  0mm
17:09 74.0 °F /  23.3 °C 54.2 °F /  12.3 °C 29.79in /  1008.7hPa Calm   6.0mph /  9.7km/h 50% 0.00in /  0mm
17:14 74.1 °F /  23.4 °C 55.4 °F /  13 °C 29.79in /  1008.7hPa Calm   5.0mph /  8km/h 52% 0.00in /  0mm
17:19 73.9 °F /  23.3 °C 52.4 °F /  11.3 °C 29.79in /  1008.7hPa Calm   8.0mph /  12.9km/h 47% 0.00in /  0mm
17:25 73.5 °F /  23.1 °C 55.9 °F /  13.3 °C 29.79in /  1008.7hPa Calm   8.0mph /  12.9km/h 54% 0.00in /  0mm
17:34 73.3 °F /  22.9 °C 55.2 °F /  12.9 °C 29.79in /  1008.7hPa Calm   3.0mph /  4.8km/h 53% 0.00in /  0mm
17:39 73.1 °F /  22.8 °C 55.0 °F /  12.8 °C 29.79in /  1008.7hPa Calm   3.0mph /  4.8km/h 53% 0.00in /  0mm
17:44 72.6 °F /  22.6 °C 52.9 °F /  11.6 °C 29.79in /  1008.7hPa Calm   3.0mph /  4.8km/h 50% 0.00in /  0mm
17:49 72.1 °F /  22.3 °C 54.6 °F /  12.6 °C 29.79in /  1008.7hPa Calm   3.0mph /  4.8km/h 54% 0.00in /  0mm
17:54 71.8 °F /  22.1 °C 54.8 °F /  12.7 °C 29.78in /  1008.4hPa Calm     55% 0.00in /  0mm
17:59 71.8 °F /  22.1 °C 56.2 °F /  13.4 °C 29.78in /  1008.4hPa Calm     58% 0.00in /  0mm
18:04 71.7 °F /  22.1 °C 55.7 °F /  13.2 °C 29.78in /  1008.4hPa Calm     57% 0.00in /  0mm
18:09 71.6 °F /  22 °C 57.0 °F /  13.9 °C 29.77in /  1008hPa Calm     60% 0.00in /  0mm
18:14 71.4 °F /  21.9 °C 57.7 °F /  14.3 °C 29.77in /  1008hPa Calm     62% 0.00in /  0mm
18:19 71.4 °F /  21.9 °C 57.3 °F /  14.1 °C 29.77in /  1008hPa Calm     61% 0.00in /  0mm
18:24 71.2 °F /  21.8 °C 56.2 °F /  13.4 °C 29.77in /  1008hPa Calm   1.0mph /  1.6km/h 59% 0.00in /  0mm
18:29 71.0 °F /  21.7 °C 56.4 °F /  13.6 °C 29.78in /  1008.4hPa Calm   1.0mph /  1.6km/h 60% 0.00in /  0mm
18:34 70.9 °F /  21.6 °C 57.7 °F /  14.3 °C 29.78in /  1008.4hPa Calm     63% 0.00in /  0mm
18:39 70.8 °F /  21.6 °C 59.7 °F /  15.4 °C 29.78in /  1008.4hPa Calm     68% 0.00in /  0mm
18:44 70.4 °F /  21.3 °C 58.5 °F /  14.7 °C 29.77in /  1008hPa Calm     66% 0.00in /  0mm
18:49 69.9 °F /  21.1 °C 58.0 °F /  14.4 °C 29.77in /  1008hPa Calm     66% 0.00in /  0mm
18:55 69.3 °F /  20.7 °C 58.7 °F /  14.8 °C 29.77in /  1008hPa Calm     69% 0.00in /  0mm
19:04 68.5 °F /  20.3 °C 57.9 °F /  14.4 °C 29.77in /  1008hPa Calm     69% 0.00in /  0mm
19:09 68.1 °F /  20.1 °C 58.4 °F /  14.7 °C 29.77in /  1008hPa Calm     71% 0.00in /  0mm
19:14 67.5 °F /  19.7 °C 57.4 °F /  14.1 °C 29.77in /  1008hPa Calm     70% 0.00in /  0mm
19:19 67.1 °F /  19.5 °C 58.2 °F /  14.6 °C 29.77in /  1008hPa Calm     73% 0.00in /  0mm
19:24 66.6 °F /  19.2 °C 58.1 °F /  14.5 °C 29.76in /  1007.7hPa Calm     74% 0.00in /  0mm
19:29 65.8 °F /  18.8 °C 56.1 °F /  13.4 °C 29.76in /  1007.7hPa Calm     71% 0.00in /  0mm
19:34 65.1 °F /  18.4 °C 55.5 °F /  13.1 °C 29.76in /  1007.7hPa Calm     71% 0.00in /  0mm
19:39 64.7 °F /  18.2 °C 55.5 °F /  13.1 °C 29.76in /  1007.7hPa Calm     72% 0.00in /  0mm
19:44 64.3 °F /  17.9 °C 55.1 °F /  12.8 °C 29.75in /  1007.3hPa Calm     72% 0.00in /  0mm
19:49 64.0 °F /  17.8 °C 55.6 °F /  13.1 °C 29.75in /  1007.3hPa Calm     74% 0.00in /  0mm
19:54 63.7 °F /  17.6 °C 54.9 °F /  12.7 °C 29.76in /  1007.7hPa Calm     73% 0.00in /  0mm
19:59 63.3 °F /  17.4 °C 54.5 °F /  12.5 °C 29.75in /  1007.3hPa Calm     73% 0.00in /  0mm
20:04 62.9 °F /  17.2 °C 54.5 °F /  12.5 °C 29.76in /  1007.7hPa Calm     74% 0.00in /  0mm
20:09 62.6 °F /  17 °C 54.2 °F /  12.3 °C 29.76in /  1007.7hPa Calm     74% 0.00in /  0mm
20:14 62.3 °F /  16.8 °C 54.3 °F /  12.4 °C 29.75in /  1007.3hPa Calm     75% 0.00in /  0mm
20:19 61.9 °F /  16.6 °C 54.3 °F /  12.4 °C 29.75in /  1007.3hPa Calm     76% 0.00in /  0mm
20:24 61.6 °F /  16.4 °C 54.7 °F /  12.6 °C 29.75in /  1007.3hPa Calm     78% 0.00in /  0mm
20:29 61.1 °F /  16.2 °C 53.8 °F /  12.1 °C 29.75in /  1007.3hPa Calm     77% 0.00in /  0mm
20:34 60.7 °F /  15.9 °C 53.8 °F /  12.1 °C 29.75in /  1007.3hPa Calm     78% 0.00in /  0mm
20:39 60.5 °F /  15.8 °C 52.9 °F /  11.6 °C 29.75in /  1007.3hPa Calm     76% 0.00in /  0mm
20:44 60.3 °F /  15.7 °C 53.1 °F /  11.7 °C 29.75in /  1007.3hPa Calm     77% 0.00in /  0mm
20:49 60.0 °F /  15.6 °C 52.8 °F /  11.6 °C 29.75in /  1007.3hPa Calm     77% 0.00in /  0mm
20:54 59.7 °F /  15.4 °C 52.5 °F /  11.4 °C 29.76in /  1007.7hPa Calm     77% 0.00in /  0mm
20:59 59.6 °F /  15.3 °C 52.7 °F /  11.5 °C 29.76in /  1007.7hPa Calm     78% 0.00in /  0mm
21:04 59.5 °F /  15.3 °C 53.0 °F /  11.7 °C 29.76in /  1007.7hPa Calm     79% 0.00in /  0mm
21:09 59.4 °F /  15.2 °C 52.9 °F /  11.6 °C 29.75in /  1007.3hPa Calm     79% 0.00in /  0mm
21:14 59.3 °F /  15.2 °C 53.5 °F /  11.9 °C 29.76in /  1007.7hPa Calm     81% 0.00in /  0mm
21:19 59.1 °F /  15.1 °C 53.3 °F /  11.8 °C 29.76in /  1007.7hPa Calm     81% 0.00in /  0mm
21:24 59.0 °F /  15 °C 53.2 °F /  11.8 °C 29.76in /  1007.7hPa Calm     81% 0.00in /  0mm
21:29 59.0 °F /  15 °C 53.5 °F /  11.9 °C 29.75in /  1007.3hPa Calm     82% 0.00in /  0mm
21:34 59.0 °F /  15 °C 53.5 °F /  11.9 °C 29.75in /  1007.3hPa Calm     82% 0.00in /  0mm
21:39 58.8 °F /  14.9 °C 53.7 °F /  12.1 °C 29.75in /  1007.3hPa Calm     83% 0.00in /  0mm
21:44 58.7 °F /  14.8 °C 53.6 °F /  12 °C 29.75in /  1007.3hPa Calm     83% 0.00in /  0mm
21:49 58.7 °F /  14.8 °C 53.6 °F /  12 °C 29.76in /  1007.7hPa Calm     83% 0.00in /  0mm
21:55 58.7 °F /  14.8 °C 53.6 °F /  12 °C 29.76in /  1007.7hPa Calm     83% 0.00in /  0mm
22:04 58.5 °F /  14.7 °C 53.4 °F /  11.9 °C 29.75in /  1007.3hPa Calm     83% 0.00in /  0mm
22:09 58.5 °F /  14.7 °C 52.4 °F /  11.3 °C 29.74in /  1007hPa Calm     80% 0.00in /  0mm
22:14 58.7 °F /  14.8 °C 52.2 °F /  11.2 °C 29.74in /  1007hPa Calm     79% 0.00in /  0mm
22:19 59.0 °F /  15 °C 52.2 °F /  11.2 °C 29.74in /  1007hPa Calm     78% 0.00in /  0mm
22:24 59.0 °F /  15 °C 52.2 °F /  11.2 °C 29.74in /  1007hPa Calm     78% 0.00in /  0mm
22:29 59.0 °F /  15 °C 52.5 °F /  11.4 °C 29.74in /  1007hPa Calm     79% 0.00in /  0mm
22:34 59.0 °F /  15 °C 52.2 °F /  11.2 °C 29.74in /  1007hPa Calm     78% 0.00in /  0mm
22:39 59.0 °F /  15 °C 52.2 °F /  11.2 °C 29.74in /  1007hPa Calm     78% 0.00in /  0mm
22:44 59.0 °F /  15 °C 52.5 °F /  11.4 °C 29.74in /  1007hPa Calm     79% 0.00in /  0mm
22:49 59.0 °F /  15 °C 52.8 °F /  11.6 °C 29.74in /  1007hPa Calm     80% 0.00in /  0mm
22:54 59.0 °F /  15 °C 52.8 °F /  11.6 °C 29.74in /  1007hPa Calm     80% 0.00in /  0mm
22:59 59.0 °F /  15 °C 52.5 °F /  11.4 °C 29.74in /  1007hPa Calm     79% 0.00in /  0mm
23:04 59.0 °F /  15 °C 53.2 °F /  11.8 °C 29.74in /  1007hPa Calm     81% 0.00in /  0mm
23:09 59.0 °F /  15 °C 53.2 °F /  11.8 °C 29.73in /  1006.7hPa Calm     81% 0.00in /  0mm
23:14 58.9 °F /  14.9 °C 52.4 °F /  11.3 °C 29.73in /  1006.7hPa Calm     79% 0.00in /  0mm
23:19 59.0 °F /  15 °C 52.8 °F /  11.6 °C 29.73in /  1006.7hPa Calm     80% 0.00in /  0mm
23:24 59.0 °F /  15 °C 52.8 °F /  11.6 °C 29.73in /  1006.7hPa Calm     80% 0.00in /  0mm
23:29 59.0 °F /  15 °C 52.8 °F /  11.6 °C 29.72in /  1006.3hPa Calm     80% 0.00in /  0mm
23:34 59.0 °F /  15 °C 52.5 °F /  11.4 °C 29.72in /  1006.3hPa Calm     79% 0.00in /  0mm
23:39 59.0 °F /  15 °C 52.8 °F /  11.6 °C 29.72in /  1006.3hPa Calm     80% 0.00in /  0mm
23:44 59.0 °F /  15 °C 52.5 °F /  11.4 °C 29.72in /  1006.3hPa Calm     79% 0.00in /  0mm
23:49 59.0 °F /  15 °C 52.8 °F /  11.6 °C 29.72in /  1006.3hPa Calm     80% 0.00in /  0mm
23:54 59.0 °F /  15 °C 53.2 °F /  11.8 °C 29.73in /  1006.7hPa Calm     81% 0.00in /  0mm
23:59 59.0 °F /  15 °C 53.2 °F /  11.8 °C 29.72in /  1006.3hPa Calm     81% 0.00in /  0mm
Westford Weather
Compliments of Weather Underground

 
 
Current Radar Loop:

Copyright © WestfordWeather.net 2007-2014. All rights reserved.